sensor_id;sensor_type;location;lat;lon;timestamp;pressure;altitude;pressure_sealevel;temperature
11926;BMP180;6022;48.768;18.608;2023-07-13T00:01:18;98068.97;;;22.42
11926;BMP180;6022;48.768;18.608;2023-07-13T00:03:45;98068.97;;;22.42
11926;BMP180;6022;48.768;18.608;2023-07-13T00:06:13;98067.28;;;22.35
11926;BMP180;6022;48.768;18.608;2023-07-13T00:08:40;98069.44;;;22.17
11926;BMP180;6022;48.768;18.608;2023-07-13T00:11:08;98076.81;;;22.20
11926;BMP180;6022;48.768;18.608;2023-07-13T00:13:38;98094.31;;;22.32
11926;BMP180;6022;48.768;18.608;2023-07-13T00:16:07;98091.88;;;22.31
11926;BMP180;6022;48.768;18.608;2023-07-13T00:18:37;98107.16;;;22.26
11926;BMP180;6022;48.768;18.608;2023-07-13T00:21:11;98114.28;;;22.24
11926;BMP180;6022;48.768;18.608;2023-07-13T00:23:41;98128.00;;;22.24
11926;BMP180;6022;48.768;18.608;2023-07-13T00:26:11;98125.91;;;22.20
11926;BMP180;6022;48.768;18.608;2023-07-13T00:28:40;98137.75;;;22.14
11926;BMP180;6022;48.768;18.608;2023-07-13T00:31:11;98133.88;;;22.10
11926;BMP180;6022;48.768;18.608;2023-07-13T00:33:40;98133.97;;;22.02
11926;BMP180;6022;48.768;18.608;2023-07-13T00:36:09;98132.44;;;21.94
11926;BMP180;6022;48.768;18.608;2023-07-13T00:38:37;98130.59;;;21.80
11926;BMP180;6022;48.768;18.608;2023-07-13T00:41:05;98135.91;;;21.86
11926;BMP180;6022;48.768;18.608;2023-07-13T00:43:35;98140.53;;;21.91
11926;BMP180;6022;48.768;18.608;2023-07-13T00:46:31;98141.63;;;21.96
11926;BMP180;6022;48.768;18.608;2023-07-13T00:49:04;98137.72;;;22.00
11926;BMP180;6022;48.768;18.608;2023-07-13T00:51:53;98137.25;;;21.97
11926;BMP180;6022;48.768;18.608;2023-07-13T00:54:30;98142.56;;;21.81
11926;BMP180;6022;48.768;18.608;2023-07-13T00:57:08;98163.00;;;21.82
11926;BMP180;6022;48.768;18.608;2023-07-13T00:59:42;98160.63;;;21.81
11926;BMP180;6022;48.768;18.608;2023-07-13T01:02:11;98153.50;;;21.83
11926;BMP180;6022;48.768;18.608;2023-07-13T01:04:39;98154.78;;;21.87
11926;BMP180;6022;48.768;18.608;2023-07-13T01:07:06;98146.50;;;21.91
11926;BMP180;6022;48.768;18.608;2023-07-13T01:09:34;98134.03;;;21.95
11926;BMP180;6022;48.768;18.608;2023-07-13T01:12:03;98120.31;;;21.94
11926;BMP180;6022;48.768;18.608;2023-07-13T01:14:31;98127.91;;;21.96
11926;BMP180;6022;48.768;18.608;2023-07-13T01:16:58;98128.41;;;21.91
11926;BMP180;6022;48.768;18.608;2023-07-13T01:19:42;98138.81;;;21.83
11926;BMP180;6022;48.768;18.608;2023-07-13T01:22:20;98123.38;;;21.75
11926;BMP180;6022;48.768;18.608;2023-07-13T01:24:56;98114.84;;;21.75
11926;BMP180;6022;48.768;18.608;2023-07-13T01:27:25;98108.69;;;21.76
11926;BMP180;6022;48.768;18.608;2023-07-13T01:29:53;98109.94;;;21.80
11926;BMP180;6022;48.768;18.608;2023-07-13T01:32:29;98115.19;;;21.72
11926;BMP180;6022;48.768;18.608;2023-07-13T01:34:58;98113.34;;;21.58
11926;BMP180;6022;48.768;18.608;2023-07-13T01:37:27;98110.81;;;21.50
11926;BMP180;6022;48.768;18.608;2023-07-13T01:40:03;98106.56;;;21.57
11926;BMP180;6022;48.768;18.608;2023-07-13T01:42:31;98104.09;;;21.63
11926;BMP180;6022;48.768;18.608;2023-07-13T01:44:59;98097.44;;;21.69
11926;BMP180;6022;48.768;18.608;2023-07-13T01:47:27;98098.06;;;21.71
11926;BMP180;6022;48.768;18.608;2023-07-13T01:49:58;98094.50;;;21.72
11926;BMP180;6022;48.768;18.608;2023-07-13T01:52:25;98085.16;;;21.71
11926;BMP180;6022;48.768;18.608;2023-07-13T01:54:53;98084.81;;;21.74
11926;BMP180;6022;48.768;18.608;2023-07-13T01:57:21;98091.59;;;21.75
11926;BMP180;6022;48.768;18.608;2023-07-13T01:59:48;98079.03;;;21.72
11926;BMP180;6022;48.768;18.608;2023-07-13T02:02:16;98068.53;;;21.73
11926;BMP180;6022;48.768;18.608;2023-07-13T02:04:43;98075.34;;;21.66
11926;BMP180;6022;48.768;18.608;2023-07-13T02:07:11;98077.25;;;21.50
11926;BMP180;6022;48.768;18.608;2023-07-13T02:09:38;98058.34;;;21.27
11926;BMP180;6022;48.768;18.608;2023-07-13T02:12:07;98042.22;;;21.25
11926;BMP180;6022;48.768;18.608;2023-07-13T02:14:34;98027.13;;;21.23
11926;BMP180;6022;48.768;18.608;2023-07-13T02:17:02;98018.22;;;21.25
11926;BMP180;6022;48.768;18.608;2023-07-13T02:19:31;98015.56;;;21.33
11926;BMP180;6022;48.768;18.608;2023-07-13T02:21:58;98033.94;;;21.38
11926;BMP180;6022;48.768;18.608;2023-07-13T02:24:26;98041.34;;;21.41
11926;BMP180;6022;48.768;18.608;2023-07-13T02:26:54;98048.13;;;21.42
11926;BMP180;6022;48.768;18.608;2023-07-13T02:29:22;98057.66;;;21.41
11926;BMP180;6022;48.768;18.608;2023-07-13T02:31:50;98059.75;;;21.38
11926;BMP180;6022;48.768;18.608;2023-07-13T02:34:17;98056.22;;;21.31
11926;BMP180;6022;48.768;18.608;2023-07-13T02:36:45;98052.06;;;21.30
11926;BMP180;6022;48.768;18.608;2023-07-13T02:39:14;98053.25;;;21.20
11926;BMP180;6022;48.768;18.608;2023-07-13T02:41:41;98057.16;;;21.16
11926;BMP180;6022;48.768;18.608;2023-07-13T02:44:08;98072.38;;;21.03
11926;BMP180;6022;48.768;18.608;2023-07-13T02:46:37;98071.16;;;20.91
11926;BMP180;6022;48.768;18.608;2023-07-13T02:49:05;98074.38;;;20.93
11926;BMP180;6022;48.768;18.608;2023-07-13T02:51:33;98070.81;;;20.94
11926;BMP180;6022;48.768;18.608;2023-07-13T02:54:03;98072.88;;;20.98
11926;BMP180;6022;48.768;18.608;2023-07-13T02:56:32;98068.16;;;21.02
11926;BMP180;6022;48.768;18.608;2023-07-13T02:59:20;98056.91;;;21.03
11926;BMP180;6022;48.768;18.608;2023-07-13T03:01:48;98064.97;;;21.00
11926;BMP180;6022;48.768;18.608;2023-07-13T03:04:15;98070.94;;;21.00
11926;BMP180;6022;48.768;18.608;2023-07-13T03:06:47;98086.41;;;21.00
11926;BMP180;6022;48.768;18.608;2023-07-13T03:09:15;98087.53;;;21.06
11926;BMP180;6022;48.768;18.608;2023-07-13T03:11:42;98092.97;;;21.11
11926;BMP180;6022;48.768;18.608;2023-07-13T03:14:10;98096.63;;;21.16
11926;BMP180;6022;48.768;18.608;2023-07-13T03:16:37;98112.59;;;21.20
11926;BMP180;6022;48.768;18.608;2023-07-13T03:19:06;98112.59;;;21.20
11926;BMP180;6022;48.768;18.608;2023-07-13T03:21:34;98103.06;;;21.20
11926;BMP180;6022;48.768;18.608;2023-07-13T03:24:01;98098.69;;;21.21
11926;BMP180;6022;48.768;18.608;2023-07-13T03:26:28;98100.31;;;21.22
11926;BMP180;6022;48.768;18.608;2023-07-13T03:28:55;98109.94;;;21.27
11926;BMP180;6022;48.768;18.608;2023-07-13T03:31:27;98118.78;;;21.33
11926;BMP180;6022;48.768;18.608;2023-07-13T03:33:56;98122.16;;;21.33
11926;BMP180;6022;48.768;18.608;2023-07-13T03:36:28;98123.97;;;21.33
11926;BMP180;6022;48.768;18.608;2023-07-13T03:38:59;98127.84;;;21.29
11926;BMP180;6022;48.768;18.608;2023-07-13T03:41:27;98132.22;;;21.28
11926;BMP180;6022;48.768;18.608;2023-07-13T03:43:54;98142.69;;;21.27
11926;BMP180;6022;48.768;18.608;2023-07-13T03:46:21;98143.66;;;21.34
11926;BMP180;6022;48.768;18.608;2023-07-13T03:48:49;98154.75;;;21.42
11926;BMP180;6022;48.768;18.608;2023-07-13T03:51:17;98163.41;;;21.49
11926;BMP180;6022;48.768;18.608;2023-07-13T03:53:47;98172.44;;;21.53
11926;BMP180;6022;48.768;18.608;2023-07-13T03:56:17;98165.94;;;21.57
11926;BMP180;6022;48.768;18.608;2023-07-13T03:58:52;98163.41;;;21.49
11926;BMP180;6022;48.768;18.608;2023-07-13T04:01:25;98148.72;;;21.50
11926;BMP180;6022;48.768;18.608;2023-07-13T04:03:56;98161.16;;;21.46
11926;BMP180;6022;48.768;18.608;2023-07-13T04:06:28;98156.38;;;21.43
11926;BMP180;6022;48.768;18.608;2023-07-13T04:08:59;98155.72;;;21.41
11926;BMP180;6022;48.768;18.608;2023-07-13T04:11:30;98141.22;;;21.32
11926;BMP180;6022;48.768;18.608;2023-07-13T04:13:59;98145.22;;;21.35
11926;BMP180;6022;48.768;18.608;2023-07-13T04:16:26;98143.63;;;21.42
11926;BMP180;6022;48.768;18.608;2023-07-13T04:18:55;98142.88;;;21.25
11926;BMP180;6022;48.768;18.608;2023-07-13T04:25:38;98127.22;;;20.97
11926;BMP180;6022;48.768;18.608;2023-07-13T04:28:06;98121.69;;;21.00
11926;BMP180;6022;48.768;18.608;2023-07-13T04:30:45;98130.47;;;21.21
11926;BMP180;6022;48.768;18.608;2023-07-13T04:33:12;98132.00;;;21.38
11926;BMP180;6022;48.768;18.608;2023-07-13T04:35:41;98134.97;;;21.57
11926;BMP180;6022;48.768;18.608;2023-07-13T04:38:28;98130.09;;;21.84
11926;BMP180;6022;48.768;18.608;2023-07-13T04:41:01;98135.00;;;22.16
11926;BMP180;6022;48.768;18.608;2023-07-13T04:43:30;98126.47;;;22.44
11926;BMP180;6022;48.768;18.608;2023-07-13T04:46:11;98125.69;;;22.86
11926;BMP180;6022;48.768;18.608;2023-07-13T04:48:39;98136.94;;;23.43
11926;BMP180;6022;48.768;18.608;2023-07-13T04:51:12;98133.16;;;24.01
11926;BMP180;6022;48.768;18.608;2023-07-13T04:53:40;98124.78;;;24.87
11926;BMP180;6022;48.768;18.608;2023-07-13T04:56:07;98130.91;;;25.79
11926;BMP180;6022;48.768;18.608;2023-07-13T04:58:45;98136.34;;;26.28
11926;BMP180;6022;48.768;18.608;2023-07-13T05:01:20;98129.69;;;26.64
11926;BMP180;6022;48.768;18.608;2023-07-13T05:03:53;98130.94;;;26.36
11926;BMP180;6022;48.768;18.608;2023-07-13T05:06:25;98120.50;;;25.98
11926;BMP180;6022;48.768;18.608;2023-07-13T05:08:55;98130.72;;;25.74
11926;BMP180;6022;48.768;18.608;2023-07-13T05:11:26;98126.69;;;25.65
11926;BMP180;6022;48.768;18.608;2023-07-13T05:13:53;98121.41;;;25.39
11926;BMP180;6022;48.768;18.608;2023-07-13T05:16:26;98124.13;;;25.18
11926;BMP180;6022;48.768;18.608;2023-07-13T05:18:54;98122.47;;;24.98
11926;BMP180;6022;48.768;18.608;2023-07-13T05:21:27;98130.72;;;24.74
11926;BMP180;6022;48.768;18.608;2023-07-13T05:23:56;98127.28;;;24.40
11926;BMP180;6022;48.768;18.608;2023-07-13T05:26:31;98142.88;;;24.20
11926;BMP180;6022;48.768;18.608;2023-07-13T05:29:01;98152.03;;;23.95
11926;BMP180;6022;48.768;18.608;2023-07-13T05:31:31;98156.03;;;23.77
11926;BMP180;6022;48.768;18.608;2023-07-13T05:34:02;98172.28;;;23.64
11926;BMP180;6022;48.768;18.608;2023-07-13T05:36:35;98177.00;;;23.47
11926;BMP180;6022;48.768;18.608;2023-07-13T05:39:04;98187.50;;;23.24
11926;BMP180;6022;48.768;18.608;2023-07-13T05:41:36;98203.41;;;23.07
11926;BMP180;6022;48.768;18.608;2023-07-13T05:44:06;98193.81;;;22.65
11926;BMP180;6022;48.768;18.608;2023-07-13T05:46:34;98206.06;;;22.34
11926;BMP180;6022;48.768;18.608;2023-07-13T05:56:00;98223.69;;;22.08
11926;BMP180;6022;48.768;18.608;2023-07-13T05:58:29;98222.16;;;21.99
11926;BMP180;6022;48.768;18.608;2023-07-13T06:01:03;98225.44;;;21.94
11926;BMP180;6022;48.768;18.608;2023-07-13T06:03:32;98236.28;;;21.89
11926;BMP180;6022;48.768;18.608;2023-07-13T06:06:00;98229.38;;;21.82
11926;BMP180;6022;48.768;18.608;2023-07-13T06:08:34;98225.09;;;21.66
11926;BMP180;6022;48.768;18.608;2023-07-13T06:11:21;98219.56;;;21.47
11926;BMP180;6022;48.768;18.608;2023-07-13T06:13:48;98227.97;;;21.33
11926;BMP180;6022;48.768;18.608;2023-07-13T06:16:16;98226.13;;;21.20
11926;BMP180;6022;48.768;18.608;2023-07-13T06:18:47;98222.28;;;21.08
11926;BMP180;6022;48.768;18.608;2023-07-13T06:21:22;98219.59;;;20.93
11926;BMP180;6022;48.768;18.608;2023-07-13T06:23:59;98216.25;;;20.85
11926;BMP180;6022;48.768;18.608;2023-07-13T06:26:26;98205.78;;;20.79
11926;BMP180;6022;48.768;18.608;2023-07-13T06:28:58;98203.22;;;20.71
11926;BMP180;6022;48.768;18.608;2023-07-13T06:31:28;98199.53;;;20.65
11926;BMP180;6022;48.768;18.608;2023-07-13T06:33:58;98192.56;;;20.58
11926;BMP180;6022;48.768;18.608;2023-07-13T06:36:25;98199.84;;;20.62
11926;BMP180;6022;48.768;18.608;2023-07-13T06:38:55;98195.97;;;20.66
11926;BMP180;6022;48.768;18.608;2023-07-13T06:41:23;98202.41;;;20.70
11926;BMP180;6022;48.768;18.608;2023-07-13T06:44:05;98199.50;;;20.73
11926;BMP180;6022;48.768;18.608;2023-07-13T06:46:33;98190.31;;;20.71
11926;BMP180;6022;48.768;18.608;2023-07-13T06:49:01;98192.75;;;20.72
11926;BMP180;6022;48.768;18.608;2023-07-13T06:51:53;98187.75;;;20.71
11926;BMP180;6022;48.768;18.608;2023-07-13T06:54:20;98197.25;;;20.70
11926;BMP180;6022;48.768;18.608;2023-07-13T06:56:47;98196.09;;;20.81
11926;BMP180;6022;48.768;18.608;2023-07-13T06:59:17;98184.81;;;20.82
11926;BMP180;6022;48.768;18.608;2023-07-13T07:02:06;98168.88;;;20.78
11926;BMP180;6022;48.768;18.608;2023-07-13T07:04:39;98150.03;;;20.70
11926;BMP180;6022;48.768;18.608;2023-07-13T07:07:07;98135.19;;;20.72
11926;BMP180;6022;48.768;18.608;2023-07-13T07:09:34;98132.19;;;20.45
11926;BMP180;6022;48.768;18.608;2023-07-13T07:12:05;98133.31;;;20.50
11926;BMP180;6022;48.768;18.608;2023-07-13T07:14:33;98131.50;;;20.58
11926;BMP180;6022;48.768;18.608;2023-07-13T07:17:02;98137.31;;;20.52
11926;BMP180;6022;48.768;18.608;2023-07-13T07:19:30;98139.25;;;20.66
11926;BMP180;6022;48.768;18.608;2023-07-13T07:21:58;98148.84;;;20.88
11926;BMP180;6022;48.768;18.608;2023-07-13T07:24:28;98139.75;;;21.00
11926;BMP180;6022;48.768;18.608;2023-07-13T07:26:59;98142.03;;;21.03
11926;BMP180;6022;48.768;18.608;2023-07-13T07:29:30;98133.34;;;20.96
11926;BMP180;6022;48.768;18.608;2023-07-13T07:32:00;98132.53;;;20.95
11926;BMP180;6022;48.768;18.608;2023-07-13T07:34:32;98143.91;;;21.09
11926;BMP180;6022;48.768;18.608;2023-07-13T07:37:02;98149.84;;;21.17
11926;BMP180;6022;48.768;18.608;2023-07-13T07:39:33;98153.13;;;21.33
11926;BMP180;6022;48.768;18.608;2023-07-13T07:42:03;98166.16;;;21.48
11926;BMP180;6022;48.768;18.608;2023-07-13T07:44:36;98175.47;;;21.57
11926;BMP180;6022;48.768;18.608;2023-07-13T07:47:13;98183.84;;;21.59
11926;BMP180;6022;48.768;18.608;2023-07-13T07:49:54;98169.97;;;21.60
11926;BMP180;6022;48.768;18.608;2023-07-13T07:52:34;98179.50;;;21.59
11926;BMP180;6022;48.768;18.608;2023-07-13T07:55:05;98171.84;;;21.43
11926;BMP180;6022;48.768;18.608;2023-07-13T07:57:36;98166.03;;;21.33
11926;BMP180;6022;48.768;18.608;2023-07-13T08:00:10;98180.38;;;21.44
11926;BMP180;6022;48.768;18.608;2023-07-13T08:02:41;98185.66;;;21.50
11926;BMP180;6022;48.768;18.608;2023-07-13T08:05:29;98190.50;;;21.53
11926;BMP180;6022;48.768;18.608;2023-07-13T08:08:06;98188.38;;;21.57
11926;BMP180;6022;48.768;18.608;2023-07-13T08:10:39;98191.59;;;21.59
11926;BMP180;6022;48.768;18.608;2023-07-13T08:13:10;98202.72;;;21.59
11926;BMP180;6022;48.768;18.608;2023-07-13T08:15:41;98201.56;;;21.61
11926;BMP180;6022;48.768;18.608;2023-07-13T08:18:10;98204.63;;;21.65
11926;BMP180;6022;48.768;18.608;2023-07-13T08:20:50;98204.28;;;21.68
11926;BMP180;6022;48.768;18.608;2023-07-13T08:23:28;98205.94;;;21.61
11926;BMP180;6022;48.768;18.608;2023-07-13T08:26:12;98213.16;;;21.65
11926;BMP180;6022;48.768;18.608;2023-07-13T08:28:52;98214.16;;;21.64
11926;BMP180;6022;48.768;18.608;2023-07-13T08:31:23;98210.78;;;21.64
11926;BMP180;6022;48.768;18.608;2023-07-13T08:33:51;98210.19;;;21.76
11926;BMP180;6022;48.768;18.608;2023-07-13T08:36:26;98215.78;;;21.88
11926;BMP180;6022;48.768;18.608;2023-07-13T08:39:06;98224.13;;;21.98
11926;BMP180;6022;48.768;18.608;2023-07-13T08:41:55;98228.22;;;22.06
11926;BMP180;6022;48.768;18.608;2023-07-13T08:44:43;98226.75;;;22.12
11926;BMP180;6022;48.768;18.608;2023-07-13T08:47:25;98232.50;;;21.99
11926;BMP180;6022;48.768;18.608;2023-07-13T08:49:58;98234.94;;;21.93
11926;BMP180;6022;48.768;18.608;2023-07-13T08:52:37;98227.34;;;21.99
11926;BMP180;6022;48.768;18.608;2023-07-13T08:55:36;98231.81;;;22.05
11926;BMP180;6022;48.768;18.608;2023-07-13T08:58:15;98228.22;;;22.06
11926;BMP180;6022;48.768;18.608;2023-07-13T09:04:06;98228.28;;;21.98
11926;BMP180;6022;48.768;18.608;2023-07-13T09:07:07;98234.78;;;21.95
11926;BMP180;6022;48.768;18.608;2023-07-13T09:10:14;98237.66;;;21.99
11926;BMP180;6022;48.768;18.608;2023-07-13T09:15:50;98235.00;;;21.85
11926;BMP180;6022;48.768;18.608;2023-07-13T09:21:19;98250.97;;;21.89
11926;BMP180;6022;48.768;18.608;2023-07-13T09:23:54;98244.41;;;21.78
11926;BMP180;6022;48.768;18.608;2023-07-13T09:26:29;98244.41;;;21.78
11926;BMP180;6022;48.768;18.608;2023-07-13T09:29:13;98239.06;;;21.80
11926;BMP180;6022;48.768;18.608;2023-07-13T09:31:50;98238.22;;;21.87
11926;BMP180;6022;48.768;18.608;2023-07-13T09:34:21;98237.81;;;21.98
11926;BMP180;6022;48.768;18.608;2023-07-13T09:36:52;98243.53;;;21.94
11926;BMP180;6022;48.768;18.608;2023-07-13T09:39:55;98244.34;;;22.08
11926;BMP180;6022;48.768;18.608;2023-07-13T09:42:40;98240.97;;;22.08
11926;BMP180;6022;48.768;18.608;2023-07-13T09:45:10;98235.81;;;22.08
11926;BMP180;6022;48.768;18.608;2023-07-13T09:47:40;98235.13;;;22.14
11926;BMP180;6022;48.768;18.608;2023-07-13T09:50:15;98228.34;;;22.13
11926;BMP180;6022;48.768;18.608;2023-07-13T09:52:49;98229.13;;;22.21
11926;BMP180;6022;48.768;18.608;2023-07-13T09:55:42;98221.34;;;22.43
11926;BMP180;6022;48.768;18.608;2023-07-13T09:58:21;98214.59;;;22.57
11926;BMP180;6022;48.768;18.608;2023-07-13T10:01:00;98205.88;;;22.72
11926;BMP180;6022;48.768;18.608;2023-07-13T10:03:35;98207.34;;;23.03
11926;BMP180;6022;48.768;18.608;2023-07-13T10:06:16;98202.41;;;23.37
11926;BMP180;6022;48.768;18.608;2023-07-13T10:08:46;98206.81;;;23.71
11926;BMP180;6022;48.768;18.608;2023-07-13T10:11:29;98191.75;;;24.23
11926;BMP180;6022;48.768;18.608;2023-07-13T10:14:09;98198.94;;;24.96
11926;BMP180;6022;48.768;18.608;2023-07-13T10:16:42;98185.50;;;25.91
11926;BMP180;6022;48.768;18.608;2023-07-13T10:19:21;98189.56;;;26.52
11926;BMP180;6022;48.768;18.608;2023-07-13T10:22:00;98183.28;;;27.60
11926;BMP180;6022;48.768;18.608;2023-07-13T10:24:33;98185.94;;;28.15
11926;BMP180;6022;48.768;18.608;2023-07-13T10:27:20;98177.66;;;28.49
11926;BMP180;6022;48.768;18.608;2023-07-13T10:30:11;98187.00;;;28.56
11926;BMP180;6022;48.768;18.608;2023-07-13T10:32:44;98195.22;;;28.35
11926;BMP180;6022;48.768;18.608;2023-07-13T10:35:15;98187.09;;;28.74
11926;BMP180;6022;48.768;18.608;2023-07-13T10:37:50;98187.38;;;28.66
11926;BMP180;6022;48.768;18.608;2023-07-13T10:40:30;98185.81;;;28.58
11926;BMP180;6022;48.768;18.608;2023-07-13T10:43:05;98182.16;;;28.66
11926;BMP180;6022;48.768;18.608;2023-07-13T10:53:22;98156.25;;;29.35
11926;BMP180;6022;48.768;18.608;2023-07-13T10:56:29;98158.25;;;29.22
11926;BMP180;6022;48.768;18.608;2023-07-13T10:59:14;98169.84;;;29.26
11926;BMP180;6022;48.768;18.608;2023-07-13T11:02:32;98176.09;;;29.25
11926;BMP180;6022;48.768;18.608;2023-07-13T11:05:30;98178.81;;;29.48
11926;BMP180;6022;48.768;18.608;2023-07-13T11:11:38;98173.09;;;29.86
11926;BMP180;6022;48.768;18.608;2023-07-13T11:17:54;98175.16;;;28.36
11926;BMP180;6022;48.768;18.608;2023-07-13T11:20:38;98182.25;;;27.98
11926;BMP180;6022;48.768;18.608;2023-07-13T11:25:41;98174.94;;;27.33
11926;BMP180;6022;48.768;18.608;2023-07-13T11:28:21;98189.84;;;27.26
11926;BMP180;6022;48.768;18.608;2023-07-13T11:31:17;98188.22;;;27.25
11926;BMP180;6022;48.768;18.608;2023-07-13T11:37:37;98183.75;;;26.82
11926;BMP180;6022;48.768;18.608;2023-07-13T11:40:48;98171.34;;;26.52
11926;BMP180;6022;48.768;18.608;2023-07-13T11:43:51;98181.16;;;26.37
11926;BMP180;6022;48.768;18.608;2023-07-13T11:46:27;98178.56;;;26.24
11926;BMP180;6022;48.768;18.608;2023-07-13T11:49:16;98184.13;;;26.08
11926;BMP180;6022;48.768;18.608;2023-07-13T11:51:48;98190.72;;;25.91
11926;BMP180;6022;48.768;18.608;2023-07-13T11:54:47;98186.88;;;25.75
11926;BMP180;6022;48.768;18.608;2023-07-13T11:57:33;98183.06;;;25.71
11926;BMP180;6022;48.768;18.608;2023-07-13T12:00:31;98194.28;;;25.84
11926;BMP180;6022;48.768;18.608;2023-07-13T12:03:11;98196.50;;;25.81
11926;BMP180;6022;48.768;18.608;2023-07-13T12:06:03;98197.47;;;25.73
11926;BMP180;6022;48.768;18.608;2023-07-13T12:08:43;98196.41;;;25.55
11926;BMP180;6022;48.768;18.608;2023-07-13T12:11:17;98192.94;;;25.35
11926;BMP180;6022;48.768;18.608;2023-07-13T12:13:48;98191.28;;;25.21
11926;BMP180;6022;48.768;18.608;2023-07-13T12:16:33;98205.41;;;25.12
11926;BMP180;6022;48.768;18.608;2023-07-13T12:19:03;98200.03;;;25.14
11926;BMP180;6022;48.768;18.608;2023-07-13T12:21:39;98204.22;;;25.15
11926;BMP180;6022;48.768;18.608;2023-07-13T12:24:19;98210.25;;;25.28
11926;BMP180;6022;48.768;18.608;2023-07-13T12:27:01;98215.94;;;25.38
11926;BMP180;6022;48.768;18.608;2023-07-13T12:30:24;98210.19;;;25.55
11926;BMP180;6022;48.768;18.608;2023-07-13T12:33:16;98202.28;;;25.83
11926;BMP180;6022;48.768;18.608;2023-07-13T12:35:51;98202.94;;;26.04
11926;BMP180;6022;48.768;18.608;2023-07-13T12:38:35;98199.97;;;26.39
11926;BMP180;6022;48.768;18.608;2023-07-13T12:41:10;98188.75;;;26.77
11926;BMP180;6022;48.768;18.608;2023-07-13T12:44:32;98193.72;;;26.98
11926;BMP180;6022;48.768;18.608;2023-07-13T12:47:14;98192.72;;;27.05
11926;BMP180;6022;48.768;18.608;2023-07-13T12:50:00;98183.50;;;26.96
11926;BMP180;6022;48.768;18.608;2023-07-13T12:52:52;98179.50;;;26.74
11926;BMP180;6022;48.768;18.608;2023-07-13T12:55:30;98185.38;;;26.63
11926;BMP180;6022;48.768;18.608;2023-07-13T12:58:30;98184.34;;;26.52
11926;BMP180;6022;48.768;18.608;2023-07-13T13:01:22;98170.34;;;26.53
11926;BMP180;6022;48.768;18.608;2023-07-13T13:04:16;98171.56;;;26.57
11926;BMP180;6022;48.768;18.608;2023-07-13T13:07:07;98163.94;;;26.68
11926;BMP180;6022;48.768;18.608;2023-07-13T13:10:13;98158.69;;;26.87
11926;BMP180;6022;48.768;18.608;2023-07-13T13:12:41;98158.63;;;27.06
11926;BMP180;6022;48.768;18.608;2023-07-13T13:15:12;98160.97;;;27.21
11926;BMP180;6022;48.768;18.608;2023-07-13T13:17:45;98164.03;;;27.11
11926;BMP180;6022;48.768;18.608;2023-07-13T13:20:21;98161.06;;;26.95
11926;BMP180;6022;48.768;18.608;2023-07-13T13:23:19;98169.91;;;26.68
11926;BMP180;6022;48.768;18.608;2023-07-13T13:25:53;98174.38;;;26.49
11926;BMP180;6022;48.768;18.608;2023-07-13T13:28:22;98181.56;;;26.27
11926;BMP180;6022;48.768;18.608;2023-07-13T13:30:52;98210.09;;;25.83
11926;BMP180;6022;48.768;18.608;2023-07-13T13:33:24;98233.22;;;24.64
11926;BMP180;6022;48.768;18.608;2023-07-13T13:35:51;98253.84;;;24.45
11926;BMP180;6022;48.768;18.608;2023-07-13T13:38:27;98260.28;;;24.14
11926;BMP180;6022;48.768;18.608;2023-07-13T13:41:02;98255.25;;;23.42
11926;BMP180;6022;48.768;18.608;2023-07-13T13:43:42;98238.19;;;23.19
11926;BMP180;6022;48.768;18.608;2023-07-13T13:46:24;98224.41;;;23.12
11926;BMP180;6022;48.768;18.608;2023-07-13T13:49:36;98204.47;;;23.13
11926;BMP180;6022;48.768;18.608;2023-07-13T13:52:11;98217.25;;;23.28
11926;BMP180;6022;48.768;18.608;2023-07-13T13:55:01;98219.00;;;23.28
11926;BMP180;6022;48.768;18.608;2023-07-13T13:57:29;98224.41;;;23.12
11926;BMP180;6022;48.768;18.608;2023-07-13T13:59:58;98236.69;;;23.39
11926;BMP180;6022;48.768;18.608;2023-07-13T14:02:36;98241.25;;;23.22
11926;BMP180;6022;48.768;18.608;2023-07-13T14:05:26;98258.31;;;23.03
11926;BMP180;6022;48.768;18.608;2023-07-13T14:07:54;98263.81;;;22.85
11926;BMP180;6022;48.768;18.608;2023-07-13T14:10:27;98260.44;;;22.63
11926;BMP180;6022;48.768;18.608;2023-07-13T14:12:57;98253.59;;;22.70
11926;BMP180;6022;48.768;18.608;2023-07-13T14:15:29;98254.75;;;22.67
11926;BMP180;6022;48.768;18.608;2023-07-13T14:18:12;98262.25;;;22.76
11926;BMP180;6022;48.768;18.608;2023-07-13T14:20:47;98278.28;;;22.94
11926;BMP180;6022;48.768;18.608;2023-07-13T14:23:20;98297.06;;;23.25
11926;BMP180;6022;48.768;18.608;2023-07-13T14:26:03;98305.25;;;23.43
11926;BMP180;6022;48.768;18.608;2023-07-13T14:28:54;98291.69;;;23.41
11926;BMP180;6022;48.768;18.608;2023-07-13T14:31:35;98286.78;;;23.46
11926;BMP180;6022;48.768;18.608;2023-07-13T14:34:16;98289.81;;;23.35
11926;BMP180;6022;48.768;18.608;2023-07-13T14:36:52;98284.00;;;23.33
11926;BMP180;6022;48.768;18.608;2023-07-13T14:39:27;98283.09;;;23.26
11926;BMP180;6022;48.768;18.608;2023-07-13T14:42:00;98282.59;;;23.16
11926;BMP180;6022;48.768;18.608;2023-07-13T14:44:40;98289.91;;;23.27
11926;BMP180;6022;48.768;18.608;2023-07-13T14:47:12;98280.44;;;23.34
11926;BMP180;6022;48.768;18.608;2023-07-13T14:49:44;98282.94;;;23.42
11926;BMP180;6022;48.768;18.608;2023-07-13T14:52:40;98280.25;;;23.50
11926;BMP180;6022;48.768;18.608;2023-07-13T14:55:27;98272.06;;;23.60
11926;BMP180;6022;48.768;18.608;2023-07-13T14:57:54;98261.41;;;23.70
11926;BMP180;6022;48.768;18.608;2023-07-13T15:00:22;98261.13;;;23.79
11926;BMP180;6022;48.768;18.608;2023-07-13T15:02:57;98252.84;;;23.90
11926;BMP180;6022;48.768;18.608;2023-07-13T15:05:32;98256.31;;;23.97
11926;BMP180;6022;48.768;18.608;2023-07-13T15:08:05;98256.31;;;23.97
11926;BMP180;6022;48.768;18.608;2023-07-13T15:10:45;98247.31;;;23.93
11926;BMP180;6022;48.768;18.608;2023-07-13T15:13:17;98254.97;;;24.01
11926;BMP180;6022;48.768;18.608;2023-07-13T15:15:51;98250.91;;;24.13
11926;BMP180;6022;48.768;18.608;2023-07-13T15:18:24;98250.78;;;24.21
11926;BMP180;6022;48.768;18.608;2023-07-13T15:20:55;98247.56;;;24.19
11926;BMP180;6022;48.768;18.608;2023-07-13T15:23:45;98244.72;;;24.14
11926;BMP180;6022;48.768;18.608;2023-07-13T15:26:18;98242.53;;;24.11
11926;BMP180;6022;48.768;18.608;2023-07-13T15:28:50;98251.72;;;24.13
11926;BMP180;6022;48.768;18.608;2023-07-13T15:31:24;98255.09;;;24.14
11926;BMP180;6022;48.768;18.608;2023-07-13T15:33:57;98252.25;;;24.09
11926;BMP180;6022;48.768;18.608;2023-07-13T15:36:26;98250.31;;;24.11